• Join FlightAware (Why Join?)
  • Login
  • US Flag 
12:59PM EDT


 

Airport Tracker/Info


-or-


 

Live Flight TrackerFlight Track Log ✈ N575EW ✈ 02-Nov-2013 ✈ KHFD - KIAD

Flight Track Log - Related Links

Times and Time Zones

All times are in EDT time to prevent confusion due to time zone crossing. See the N575EW flight status page for this flight to view local times or setup timezone preferences in your user account.

Time Position Orientation Groundspeed Altitude Reporting Facility
EDT Latitude Longitude Course Direction KTS MPH feet Rate Location/Type
04:59PM 41.7136 -72.6539 235° Southwest 134 154 1,300  Level Boston Center
04:59PM 41.6994 -72.6806 235° Southwest 155 178 2,500 1,860 Climbing Boston Center
05:00PM 41.6936 -72.7042 252° West 166 191 3,100 1,080 Climbing Boston Center
05:00PM 41.6975 -72.7547 276° West 248 285 3,600 1,140 Climbing Boston Center
05:01PM 41.7161 -72.7800 315° West 243 280 4,300 2,400 Climbing Boston Center
05:01PM 41.7467 -72.8214 315° West 264 304 6,000 2,700 Climbing Boston Center
05:02PM 41.7650 -72.8472 314° West 252 290 7,000 2,880 Climbing Boston Center
05:02PM 41.7811 -72.8972 293° West 230 265 8,900 2,400 Climbing Boston Center
05:03PM 41.7908 -72.9256 295° West 229 264 9,600 1,260 Climbing Boston Center
05:04PM 41.8089 -73.0172 285° West 264 304 10,700 1,740 Climbing Boston Center
05:05PM 41.8022 -73.1197 265° West 259 298 13,200 2,400 Climbing Boston Center
05:06PM 41.7967 -73.2056 265° West 229 264 15,600 2,040 Climbing Boston Center
05:07PM 41.7914 -73.2881 265° West 224 258 17,300 1,680 Climbing Boston Center
05:08PM 41.7847 -73.3742 264° West 231 266 19,100 1,560 Climbing Boston Center
05:09PM 41.7811 -73.4522 266° West 217 250 20,600 1,440 Climbing Boston Center
05:10PM 41.7767 -73.5281 266° West 208 239 22,100 1,440 Climbing Boston Center
05:11PM 41.7706 -73.5961 263° West 193 222 23,600 1,440 Climbing Boston Center
05:12PM 41.7369 -73.6300 217° Southwest 160 184 25,100 1,440 Climbing Boston Center
05:13PM 41.7036 -73.6586 213° Southwest 146 168 26,600 1,320 Climbing Boston Center
05:14PM 41.6736 -73.6839 212° Southwest 133 153 27,800 660 Climbing Boston Center
05:15PM 41.6422 -73.7097 212° Southwest 135 155 28,000 60 Climbing Boston Center
05:16PM 41.6011 -73.7442 212° Southwest 169 194 28,000  Level Boston Center
05:16PM 41.5606 -73.7764 211° Southwest 174 200 28,000  Level New York Center
05:17PM 41.5097 -73.8158 210° Southwest 202 232 28,000  Level New York Center
05:18PM 41.4544 -73.8603 211° Southwest 222 255 28,000  Level New York Center
05:19PM 41.4011 -73.9019 210° Southwest 229 264 28,000  Level New York Center
05:20PM 41.3439 -73.9464 210° Southwest 235 270 28,000  Level New York Center
05:21PM 41.2864 -73.9906 210° Southwest 235 270 28,000  Level New York Center
05:22PM 41.2289 -74.0347 210° Southwest 235 270 28,000  Level New York Center
05:23PM 41.1694 -74.0786 209° Southwest 235 270 28,000  Level New York Center
05:24PM 41.1200 -74.1367 222° Southwest 235 270 28,000  Level New York Center
05:25PM 41.0886 -74.2094 240° Southwest 230 265 28,000  Level New York Center
05:26PM 41.0511 -74.2847 237° Southwest 230 265 28,000  Level New York Center
05:27PM 41.0175 -74.3600 239° Southwest 242 278 28,000  Level New York Center
05:28PM 40.9797 -74.4347 236° Southwest 248 285 28,000  Level New York Center
05:29PM 40.9439 -74.5125 239° Southwest 248 285 28,000  Level New York Center
05:30PM 40.9103 -74.5903 240° Southwest 248 285 28,000  Level New York Center
05:31PM 40.8744 -74.6678 239° Southwest 248 285 28,000  Level New York Center
05:32PM 40.8406 -74.7456 240° Southwest 248 285 28,000  Level New York Center
05:33PM 40.8044 -74.8231 238° Southwest 248 285 28,000  Level New York Center
05:34PM 40.7708 -74.8975 239° Southwest 248 285 28,000  Level New York Center
05:35PM 40.7367 -74.9750 240° Southwest 248 285 28,000  Level New York Center
05:36PM 40.7028 -75.0522 240° Southwest 248 285 28,000  Level New York Center
05:37PM 40.6664 -75.1319 239° Southwest 248 285 28,000  Level New York Center
05:38PM 40.6303 -75.2064 237° Southwest 248 285 28,000  Level New York Center
05:39PM 40.5961 -75.2833 240° Southwest 248 285 28,000  Level New York Center
05:40PM 40.5619 -75.3603 240° Southwest 248 285 28,000 -240 Level New York Center
05:41PM 40.5258 -75.4344 237° Southwest 248 285 27,600 -840 Descending New York Center
05:42PM 40.4847 -75.5189 237° Southwest 255 293 26,400 -1,500 Descending New York Center
05:43PM 40.4436 -75.6089 239° Southwest 269 310 24,700 -1,800 Descending New York Center
05:44PM 40.4092 -75.6883 240° Southwest 275 316 22,900 -2,040 Descending New York Center
05:45PM 40.3703 -75.7672 237° Southwest 262 302 20,700 -1,500 Descending New York Center
05:46PM 40.3336 -75.8461 239° Southwest 262 302 20,000 -540 Descending New York Center
05:47PM 40.2925 -75.9331 238° Southwest 271 312 19,700 -780 Descending New York Center
05:48PM 40.2508 -76.0253 239° Southwest 292 336 18,500 -1,200 Descending New York Center
05:49PM 40.2117 -76.1064 238° Southwest 297 342 17,300 -780 Descending New York Center
05:50PM 40.1681 -76.1956 237° Southwest 297 342 17,000 -180 Descending New York Center
05:51PM 40.1194 -76.2975 238° Southwest 297 342 17,000  Level New York Center
05:52PM 40.0778 -76.3892 239° Southwest 297 342 17,000 -540 Level New York Center
05:55PM 39.9833 -76.6000 240° Southwest 305 351 15,200 -600 Descending Potomac TRACON
05:56PM 39.9167 -76.7167 233° Southwest 303 349 15,000 -60 Descending Potomac TRACON
05:57PM 39.8833 -76.7833 237° Southwest 301 346 15,100 -540 Climbing Potomac TRACON
05:58PM 39.8333 -76.9000 241° Southwest 300 345 14,000 -900 Descending Potomac TRACON
05:59PM 39.8000 -76.9667 237° Southwest 302 348 13,400 -780 Descending Potomac TRACON
06:00PM 39.7667 -77.0667 247° West 298 343 12,600 -840 Descending Potomac TRACON
06:01PM 39.7167 -77.1500 232° Southwest 294 338 11,800 -900 Descending Potomac TRACON
06:02PM 39.6833 -77.2500 247° West 290 334 10,900 -960 Descending Potomac TRACON
06:03PM 39.6333 -77.3167 226° Southwest 270 311 9,900 -1,200 Descending Potomac TRACON
06:04PM 39.5667 -77.3500 201° Southwest 255 293 8,500 -1,320 Descending Potomac TRACON
06:05PM 39.5000 -77.3500 180° South 275 316 7,300 -720 Descending Potomac TRACON
06:06PM 39.4167 -77.3667 189° South 274 315 7,100 -900 Descending Potomac TRACON
06:07PM 39.3333 -77.3667 180° South 284 327 5,500 -1,140 Descending Potomac TRACON
06:08PM 39.2667 -77.3667 180° South 282 325 5,000 -780 Descending Potomac TRACON
06:09PM 39.1833 -77.3667 180° South 287 330 4,100 -480 Descending Potomac TRACON
06:10PM 39.1000 -77.3667 180° South 272 313 4,100 -420 Level Potomac TRACON
06:11PM 39.0167 -77.3667 180° South 287 330 3,300 -480 Descending Potomac TRACON
06:12PM 38.9333 -77.3667 180° South 275 316 3,100 -120 Descending Potomac TRACON
06:13PM 38.8667 -77.3667 180° South 274 315 3,100 -180 Level Potomac TRACON
06:14PM 38.8167 -77.4167 218° Southwest 241 277 2,800 -480 Descending Potomac TRACON
06:15PM 38.8500 -77.4667 311° West 221 254 2,300 -780 Descending Potomac TRACON
06:16PM 38.9000 -77.4667 360° North 156 180 1,200 -1,020 Descending Potomac TRACON